createdAt,value
2022-10-05T00:00:32.588Z,12.10
2022-10-05T00:02:59.325Z,12.10
2022-10-05T00:05:30.090Z,12.10
2022-10-05T00:08:02.106Z,12.10
2022-10-05T00:10:29.363Z,12.10
2022-10-05T00:12:55.822Z,12.00
2022-10-05T00:15:23.173Z,12.20
2022-10-05T00:17:49.664Z,12.40
2022-10-05T00:20:22.916Z,12.40
2022-10-05T00:22:51.927Z,12.60
2022-10-05T00:25:21.129Z,12.50
2022-10-05T00:27:58.682Z,12.60
2022-10-05T00:30:27.338Z,12.70
2022-10-05T00:32:58.652Z,12.60
2022-10-05T00:35:28.169Z,12.30
2022-10-05T00:37:55.445Z,12.70
2022-10-05T00:40:44.835Z,12.80
2022-10-05T00:43:26.919Z,12.50
2022-10-05T00:46:07.831Z,12.80
2022-10-05T00:49:03.514Z,12.70
2022-10-05T00:51:30.317Z,13.00
2022-10-05T00:54:02.878Z,13.10
2022-10-05T00:56:54.087Z,13.10
2022-10-05T01:00:02.465Z,13.20
2022-10-05T01:02:52.181Z,12.90
2022-10-05T01:05:27.633Z,13.00
2022-10-05T01:08:05.470Z,12.70
2022-10-05T01:11:04.368Z,12.60
2022-10-05T01:13:51.487Z,12.20
2022-10-05T01:16:44.505Z,12.20
2022-10-05T01:19:31.240Z,12.30
2022-10-05T01:22:10.471Z,12.30
2022-10-05T01:24:43.445Z,12.00
2022-10-05T01:28:08.948Z,11.90
2022-10-05T01:30:43.389Z,11.70
2022-10-05T01:33:20.902Z,11.90
2022-10-05T01:36:16.693Z,12.10
2022-10-05T01:38:48.773Z,12.10
2022-10-05T01:41:57.494Z,12.40
2022-10-05T01:44:46.435Z,12.40
2022-10-05T01:47:22.890Z,12.10
2022-10-05T01:50:00.679Z,12.00
2022-10-05T01:52:33.083Z,11.80
2022-10-05T01:55:07.989Z,11.80
2022-10-05T01:57:44.625Z,12.10
2022-10-05T02:00:13.434Z,12.30
2022-10-05T02:02:56.008Z,12.70
2022-10-05T02:05:34.375Z,12.50
2022-10-05T02:08:04.029Z,12.30
2022-10-05T02:10:34.993Z,12.50
2022-10-05T02:13:10.701Z,12.80
2022-10-05T02:15:44.196Z,12.70
2022-10-05T02:18:18.121Z,13.10
2022-10-05T02:20:46.153Z,13.20
2022-10-05T02:23:17.175Z,13.30
2022-10-05T02:25:46.084Z,13.50
2022-10-05T02:28:23.647Z,13.30
2022-10-05T02:30:55.493Z,13.00
2022-10-05T02:33:30.082Z,13.40
2022-10-05T02:36:38.541Z,13.60
2022-10-05T02:39:23.878Z,13.70
2022-10-05T02:42:25.863Z,13.60
2022-10-05T02:45:11.147Z,13.60
2022-10-05T02:47:44.140Z,13.50
2022-10-05T02:50:17.270Z,13.40
2022-10-05T02:53:14.882Z,13.40
2022-10-05T02:55:57.143Z,13.40
2022-10-05T02:58:39.138Z,13.50
2022-10-05T03:01:21.786Z,13.50
2022-10-05T03:04:15.409Z,13.50
2022-10-05T03:06:50.251Z,13.60
2022-10-05T03:09:18.908Z,13.40
2022-10-05T03:12:07.916Z,13.40
2022-10-05T03:14:46.726Z,13.30
2022-10-05T03:17:21.422Z,13.00
2022-10-05T03:20:04.138Z,12.90
2022-10-05T03:22:44.354Z,13.10
2022-10-05T03:25:29.512Z,12.60
2022-10-05T03:28:01.497Z,12.10
2022-10-05T03:30:46.731Z,12.10
2022-10-05T03:33:19.105Z,12.10
2022-10-05T03:35:56.085Z,12.30
2022-10-05T03:38:42.002Z,11.80
2022-10-05T03:41:29.051Z,11.60
2022-10-05T03:44:21.950Z,11.70
2022-10-05T03:46:58.037Z,11.50
2022-10-05T03:49:24.596Z,11.60
2022-10-05T03:52:00.989Z,11.50
2022-10-05T03:54:59.269Z,11.40
2022-10-05T03:57:35.104Z,11.50
2022-10-05T04:00:12.732Z,11.50
2022-10-05T04:02:56.124Z,11.60
2022-10-05T04:05:27.488Z,11.70
2022-10-05T04:08:00.478Z,12.10
2022-10-05T04:10:54.517Z,12.10
2022-10-05T04:13:37.645Z,12.10
2022-10-05T04:16:08.717Z,12.10
2022-10-05T04:18:42.290Z,11.70
2022-10-05T04:21:23.654Z,11.60
2022-10-05T04:24:31.021Z,11.30
2022-10-05T04:27:00.178Z,11.20
2022-10-05T04:29:47.192Z,11.20
2022-10-05T04:32:15.354Z,11.10
2022-10-05T04:34:45.715Z,11.00
2022-10-05T04:37:46.740Z,10.90
2022-10-05T04:40:40.808Z,11.00
2022-10-05T04:43:16.502Z,11.00
2022-10-05T04:46:15.049Z,10.90
2022-10-05T04:49:10.981Z,10.80
2022-10-05T04:51:50.979Z,10.80
2022-10-05T04:54:43.286Z,10.70
2022-10-05T04:57:18.582Z,10.70
2022-10-05T04:59:54.195Z,10.90
2022-10-05T05:02:20.899Z,11.00
2022-10-05T05:05:02.529Z,11.10
2022-10-05T05:07:31.651Z,11.20
2022-10-05T05:10:17.874Z,11.00
2022-10-05T05:12:49.377Z,11.10
2022-10-05T05:15:25.112Z,11.10
2022-10-05T05:18:03.827Z,10.90
2022-10-05T05:20:46.130Z,11.00
2022-10-05T05:23:15.030Z,11.10
2022-10-05T05:26:02.910Z,11.10
2022-10-05T05:28:44.659Z,11.20
2022-10-05T05:31:24.979Z,11.20
2022-10-05T05:34:07.315Z,11.20
2022-10-05T05:36:56.191Z,11.20
2022-10-05T05:39:28.061Z,11.20
2022-10-05T05:42:00.764Z,11.10
2022-10-05T05:44:38.902Z,11.10
2022-10-05T05:47:20.260Z,11.00
2022-10-05T05:49:59.298Z,11.20
2022-10-05T05:52:32.051Z,11.10
2022-10-05T05:55:00.066Z,11.10
2022-10-05T05:57:38.997Z,11.20
2022-10-05T06:00:14.810Z,11.60
2022-10-05T06:03:03.905Z,11.60
2022-10-05T06:05:33.968Z,11.40
2022-10-05T06:08:29.027Z,11.40
2022-10-05T06:11:09.521Z,11.50
2022-10-05T06:13:39.806Z,11.40
2022-10-05T06:16:15.559Z,11.40
2022-10-05T06:18:44.834Z,11.50
2022-10-05T06:21:30.109Z,11.40
2022-10-05T06:24:03.727Z,11.40
2022-10-05T06:27:08.123Z,11.50
2022-10-05T06:29:47.336Z,11.80
2022-10-05T06:32:48.024Z,11.90
2022-10-05T06:35:36.412Z,11.90
2022-10-05T06:38:25.681Z,12.00
2022-10-05T06:41:11.668Z,11.90
2022-10-05T06:43:58.840Z,12.00
2022-10-05T06:47:16.280Z,12.10
2022-10-05T06:50:11.242Z,12.20
2022-10-05T06:53:38.598Z,12.20
2022-10-05T06:56:08.539Z,12.30
2022-10-05T06:59:04.821Z,12.30
2022-10-05T07:01:53.778Z,12.20
2022-10-05T07:04:55.948Z,12.30
2022-10-05T07:07:37.972Z,12.50
2022-10-05T07:10:17.199Z,12.60
2022-10-05T07:13:02.987Z,12.50
2022-10-05T07:15:57.435Z,12.50
2022-10-05T07:18:34.739Z,12.40
2022-10-05T07:21:35.646Z,12.40
2022-10-05T07:24:27.175Z,12.60
2022-10-05T07:27:06.726Z,12.70
2022-10-05T07:29:59.455Z,12.90
2022-10-05T07:32:36.407Z,12.90
2022-10-05T07:35:29.829Z,12.80
2022-10-05T07:37:58.853Z,12.80
2022-10-05T07:40:37.981Z,12.80
2022-10-05T07:44:01.101Z,12.80
2022-10-05T07:46:42.522Z,12.90
2022-10-05T07:49:26.811Z,12.90
2022-10-05T07:52:01.912Z,13.20
2022-10-05T07:54:45.114Z,13.60
2022-10-05T07:57:32.499Z,13.50
2022-10-05T08:00:22.395Z,13.50
2022-10-05T08:02:53.917Z,13.50
2022-10-05T08:05:29.524Z,13.50
2022-10-05T08:08:06.844Z,13.60
2022-10-05T08:10:40.831Z,13.70
2022-10-05T08:13:29.690Z,13.60
2022-10-05T08:16:00.932Z,13.80
2022-10-05T08:18:49.846Z,14.00
2022-10-05T08:21:20.917Z,14.00
2022-10-05T08:23:51.659Z,14.10
2022-10-05T08:26:35.038Z,14.20
2022-10-05T08:29:21.339Z,14.00
2022-10-05T08:31:50.677Z,14.00
2022-10-05T08:34:34.778Z,14.00
2022-10-05T08:37:35.033Z,14.10
2022-10-05T08:40:31.806Z,14.30
2022-10-05T08:43:08.742Z,14.60
2022-10-05T08:45:51.030Z,14.70
2022-10-05T08:48:17.500Z,14.60
2022-10-05T08:51:02.674Z,14.60
2022-10-05T08:53:50.314Z,14.90
2022-10-05T08:56:22.190Z,14.90
2022-10-05T08:59:06.230Z,15.10
2022-10-05T09:01:32.704Z,15.20
2022-10-05T09:04:20.696Z,15.20
2022-10-05T09:07:19.693Z,15.20
2022-10-05T09:10:01.741Z,15.40
2022-10-05T09:12:43.347Z,15.30
2022-10-05T09:15:51.985Z,15.40
2022-10-05T09:18:55.284Z,15.40
2022-10-05T09:21:43.823Z,15.50
2022-10-05T09:24:13.418Z,15.50
2022-10-05T09:26:48.831Z,15.40
2022-10-05T09:29:47.683Z,15.50
2022-10-05T09:32:36.004Z,15.60
2022-10-05T09:35:24.520Z,15.70
2022-10-05T09:38:26.379Z,15.80
2022-10-05T09:41:28.765Z,16.00
2022-10-05T09:44:33.196Z,15.90
2022-10-05T09:47:14.818Z,16.00
2022-10-05T09:50:03.280Z,16.10
2022-10-05T09:52:57.841Z,16.00
2022-10-05T09:55:39.138Z,16.00
2022-10-05T09:58:15.087Z,16.10
2022-10-05T10:01:32.165Z,16.10
2022-10-05T10:04:09.996Z,16.20
2022-10-05T10:07:05.188Z,16.10
2022-10-05T10:10:01.422Z,16.20
2022-10-05T10:12:43.040Z,16.30
2022-10-05T10:15:12.528Z,16.30
2022-10-05T10:17:55.899Z,16.30
2022-10-05T10:21:29.345Z,16.50
2022-10-05T10:24:14.810Z,16.70
2022-10-05T10:27:04.750Z,16.60
2022-10-05T10:29:59.085Z,16.40
2022-10-05T10:32:34.298Z,16.50
2022-10-05T10:35:25.746Z,16.60
2022-10-05T10:38:07.218Z,16.70
2022-10-05T10:40:38.805Z,16.70
2022-10-05T10:43:24.316Z,16.70
2022-10-05T10:45:50.722Z,16.70
2022-10-05T10:48:29.274Z,16.90
2022-10-05T10:51:04.408Z,17.00
2022-10-05T10:53:39.833Z,17.20
2022-10-05T10:56:41.391Z,17.40
2022-10-05T10:59:17.238Z,17.50
2022-10-05T11:02:21.561Z,17.40
2022-10-05T11:04:53.822Z,17.60
2022-10-05T11:07:42.071Z,17.80
2022-10-05T11:10:37.841Z,17.70
2022-10-05T11:13:45.698Z,17.90
2022-10-05T11:16:19.591Z,18.10
2022-10-05T11:19:20.327Z,18.30
2022-10-05T11:22:21.027Z,18.70
2022-10-05T11:24:59.690Z,19.40
2022-10-05T11:27:38.250Z,19.60
2022-10-05T11:30:31.230Z,20.00
2022-10-05T11:33:16.062Z,20.70
2022-10-05T11:36:10.461Z,21.20
2022-10-05T11:38:54.003Z,21.20
2022-10-05T11:41:38.069Z,21.30
2022-10-05T11:44:38.640Z,21.20
2022-10-05T11:47:37.609Z,20.20
2022-10-05T11:50:14.268Z,20.10
2022-10-05T11:53:06.459Z,20.30
2022-10-05T11:55:44.984Z,20.60
2022-10-05T11:58:29.696Z,20.60
2022-10-05T12:01:19.470Z,20.00
2022-10-05T12:04:20.643Z,20.00
2022-10-05T12:06:50.518Z,20.50
2022-10-05T12:09:35.606Z,19.90
2022-10-05T12:12:22.385Z,19.50
2022-10-05T12:14:55.020Z,19.40
2022-10-05T12:17:28.362Z,19.30
2022-10-05T12:19:58.569Z,19.30
2022-10-05T12:22:30.990Z,19.20
2022-10-05T12:25:17.183Z,19.30
2022-10-05T12:27:46.269Z,19.60
2022-10-05T12:30:12.970Z,19.90
2022-10-05T12:32:49.042Z,20.00
2022-10-05T12:35:46.751Z,20.40
2022-10-05T12:38:28.461Z,21.50
2022-10-05T12:41:17.840Z,21.50
2022-10-05T12:44:12.481Z,21.80
2022-10-05T12:46:54.121Z,22.10
2022-10-05T12:49:27.029Z,22.00
2022-10-05T12:51:58.199Z,22.40
2022-10-05T12:54:29.183Z,22.30
2022-10-05T12:57:01.878Z,22.10
2022-10-05T12:59:31.425Z,21.40
2022-10-05T13:02:23.781Z,21.40
2022-10-05T13:05:03.384Z,21.60
2022-10-05T13:07:48.866Z,21.50
2022-10-05T13:10:18.587Z,21.50
2022-10-05T13:13:23.486Z,21.80
2022-10-05T13:16:04.577Z,21.70
2022-10-05T13:18:34.173Z,21.50
2022-10-05T13:21:06.799Z,21.30
2022-10-05T13:23:59.969Z,20.80
2022-10-05T13:26:32.569Z,20.80
2022-10-05T13:29:17.538Z,21.00
2022-10-05T13:31:51.114Z,20.70
2022-10-05T13:34:28.755Z,20.50
2022-10-05T13:37:13.906Z,20.50
2022-10-05T13:39:51.973Z,20.70
2022-10-05T13:42:22.686Z,21.10
2022-10-05T13:45:11.086Z,21.50
2022-10-05T13:47:56.066Z,21.90
2022-10-05T13:50:33.710Z,22.20
2022-10-05T13:53:21.440Z,22.70
2022-10-05T13:55:59.971Z,23.10
2022-10-05T13:58:35.178Z,22.60
2022-10-05T14:01:05.412Z,21.90
2022-10-05T14:03:37.733Z,22.60
2022-10-05T14:06:15.169Z,22.80
2022-10-05T14:08:53.738Z,22.30
2022-10-05T14:11:34.918Z,22.30
2022-10-05T14:14:10.106Z,22.00
2022-10-05T14:16:57.509Z,21.80
2022-10-05T14:19:24.193Z,21.90
2022-10-05T14:22:10.494Z,21.80
2022-10-05T14:24:47.552Z,22.00
2022-10-05T14:27:25.664Z,21.70
2022-10-05T14:29:56.714Z,21.90
2022-10-05T14:32:24.904Z,21.70
2022-10-05T14:35:00.013Z,21.80
2022-10-05T14:37:32.707Z,21.70
2022-10-05T14:40:20.108Z,21.70
2022-10-05T14:42:47.535Z,21.80
2022-10-05T14:45:17.813Z,21.60
2022-10-05T14:47:50.817Z,21.00
2022-10-05T14:50:26.067Z,20.50
2022-10-05T14:53:16.686Z,20.70
2022-10-05T14:56:10.907Z,20.70
2022-10-05T14:58:50.597Z,20.70
2022-10-05T15:01:31.662Z,20.70
2022-10-05T15:04:13.803Z,20.70
2022-10-05T15:07:05.274Z,20.40
2022-10-05T15:09:51.033Z,20.10
2022-10-05T15:12:24.633Z,20.10
2022-10-05T15:14:52.785Z,20.20
2022-10-05T15:17:30.137Z,20.20
2022-10-05T15:20:07.398Z,19.80
2022-10-05T15:22:58.029Z,19.50
2022-10-05T15:25:40.390Z,19.60
2022-10-05T15:28:13.035Z,19.50
2022-10-05T15:31:03.504Z,19.50
2022-10-05T15:33:34.405Z,19.50
2022-10-05T15:36:11.889Z,19.50
2022-10-05T15:38:41.600Z,19.60
2022-10-05T15:41:20.589Z,19.50
2022-10-05T15:44:06.442Z,19.50
2022-10-05T15:46:39.325Z,19.50
2022-10-05T15:49:34.305Z,19.50
2022-10-05T15:52:25.597Z,19.30
2022-10-05T15:55:20.019Z,19.10
2022-10-05T15:58:12.309Z,19.00
2022-10-05T16:00:52.158Z,19.10
2022-10-05T16:03:49.525Z,19.10
2022-10-05T16:06:50.120Z,18.90
2022-10-05T16:09:52.896Z,18.80
2022-10-05T16:12:42.866Z,18.80
2022-10-05T16:15:17.906Z,18.80
2022-10-05T16:17:56.115Z,18.70
2022-10-05T16:20:47.508Z,18.60
2022-10-05T16:23:33.658Z,18.50
2022-10-05T16:26:15.385Z,18.50
2022-10-05T16:29:11.704Z,18.40
2022-10-05T16:31:56.939Z,18.50
2022-10-05T16:34:59.206Z,18.40
2022-10-05T16:38:00.968Z,18.30
2022-10-05T16:41:05.080Z,18.20
2022-10-05T16:43:49.223Z,18.00
2022-10-05T16:46:32.230Z,18.00
2022-10-05T16:49:04.237Z,18.00
2022-10-05T16:51:59.744Z,18.00
2022-10-05T16:54:37.305Z,17.90
2022-10-05T16:57:15.220Z,17.90
2022-10-05T17:00:12.171Z,17.80
2022-10-05T17:02:56.910Z,18.00
2022-10-05T17:05:38.597Z,18.00
2022-10-05T17:08:21.510Z,18.00
2022-10-05T17:10:56.887Z,18.00
2022-10-05T17:13:43.495Z,18.00
2022-10-05T17:16:28.560Z,17.90
2022-10-05T17:19:25.639Z,17.90
2022-10-05T17:22:40.468Z,17.90
2022-10-05T17:25:22.276Z,18.00
2022-10-05T17:28:22.364Z,17.90
2022-10-05T17:31:21.587Z,17.70
2022-10-05T17:34:10.524Z,17.40
2022-10-05T17:36:44.877Z,17.50
2022-10-05T17:39:18.824Z,17.40
2022-10-05T17:41:45.736Z,17.50
2022-10-05T17:44:21.461Z,17.60
2022-10-05T17:46:53.994Z,17.50
2022-10-05T17:49:46.878Z,17.50
2022-10-05T17:52:44.457Z,17.70
2022-10-05T17:55:44.410Z,17.30
2022-10-05T17:58:54.675Z,17.30
2022-10-05T18:01:38.317Z,17.80
2022-10-05T18:04:11.021Z,18.00
2022-10-05T18:07:01.334Z,18.10
2022-10-05T18:09:31.340Z,17.80
2022-10-05T18:12:19.086Z,17.70
2022-10-05T18:15:07.581Z,17.60
2022-10-05T18:17:33.998Z,17.50
2022-10-05T18:20:18.134Z,18.00
2022-10-05T18:22:46.924Z,17.90
2022-10-05T18:25:29.423Z,17.70
2022-10-05T18:28:08.193Z,17.40
2022-10-05T18:31:09.667Z,17.50
2022-10-05T18:33:55.038Z,17.40
2022-10-05T18:37:09.572Z,17.20
2022-10-05T18:39:59.522Z,17.20
2022-10-05T18:42:51.646Z,17.10
2022-10-05T18:45:33.280Z,16.90
2022-10-05T18:48:42.764Z,17.30
2022-10-05T18:51:24.019Z,17.20
2022-10-05T18:53:59.659Z,17.10
2022-10-05T18:56:45.514Z,17.30
2022-10-05T18:59:37.046Z,17.00
2022-10-05T19:02:14.219Z,16.60
2022-10-05T19:04:59.861Z,16.60
2022-10-05T19:08:05.321Z,16.30
2022-10-05T19:10:44.017Z,16.20
2022-10-05T19:13:37.569Z,16.10
2022-10-05T19:16:19.370Z,16.10
2022-10-05T19:19:01.076Z,16.10
2022-10-05T19:21:33.058Z,16.20
2022-10-05T19:24:11.626Z,16.10
2022-10-05T19:27:08.564Z,16.10
2022-10-05T19:30:04.613Z,16.00
2022-10-05T19:32:41.860Z,16.10
2022-10-05T19:35:12.639Z,16.00
2022-10-05T19:38:01.515Z,16.10
2022-10-05T19:40:35.530Z,16.10
2022-10-05T19:43:30.115Z,16.00
2022-10-05T19:46:36.673Z,16.00
2022-10-05T19:49:11.953Z,16.00
2022-10-05T19:51:51.925Z,16.00
2022-10-05T19:54:29.329Z,15.90
2022-10-05T19:57:03.511Z,15.80
2022-10-05T19:59:38.016Z,16.00
2022-10-05T20:02:04.971Z,16.00
2022-10-05T20:04:41.110Z,16.00
2022-10-05T20:07:17.317Z,15.80
2022-10-05T20:09:58.671Z,15.80
2022-10-05T20:13:18.552Z,15.90
2022-10-05T20:16:25.870Z,15.80
2022-10-05T20:19:12.188Z,15.70
2022-10-05T20:21:42.808Z,15.70
2022-10-05T20:24:23.697Z,15.70
2022-10-05T20:27:09.520Z,15.70
2022-10-05T20:29:39.004Z,15.80
2022-10-05T20:32:12.816Z,15.90
2022-10-05T20:34:51.349Z,15.80
2022-10-05T20:37:22.465Z,15.90
2022-10-05T20:39:51.747Z,15.80
2022-10-05T20:42:30.046Z,15.80
2022-10-05T20:45:00.082Z,16.00
2022-10-05T20:47:28.367Z,15.90
2022-10-05T20:49:55.608Z,15.90
2022-10-05T20:52:23.330Z,15.90
2022-10-05T20:54:56.427Z,15.90
2022-10-05T20:57:26.860Z,15.90
2022-10-05T21:00:01.754Z,16.00
2022-10-05T21:02:28.906Z,15.90
2022-10-05T21:04:59.663Z,15.80
2022-10-05T21:07:27.606Z,15.90
2022-10-05T21:09:58.285Z,15.90
2022-10-05T21:12:29.264Z,15.90
2022-10-05T21:14:56.797Z,15.90
2022-10-05T21:17:23.812Z,16.00
2022-10-05T21:19:50.544Z,15.90
2022-10-05T21:22:20.290Z,15.90
2022-10-05T21:24:48.160Z,15.90
2022-10-05T21:27:15.676Z,16.00
2022-10-05T21:29:44.552Z,16.00
2022-10-05T21:32:11.427Z,16.00
2022-10-05T21:34:39.619Z,15.90
2022-10-05T21:37:07.606Z,15.90
2022-10-05T21:39:35.111Z,15.90
2022-10-05T21:42:01.908Z,15.90
2022-10-05T21:44:28.495Z,15.90
2022-10-05T21:46:55.520Z,15.90
2022-10-05T21:49:22.186Z,15.90
2022-10-05T21:51:48.787Z,15.90
2022-10-05T21:54:18.352Z,15.90
2022-10-05T21:56:47.692Z,16.00
2022-10-05T21:59:16.433Z,16.00
2022-10-05T22:01:43.311Z,15.90
2022-10-05T22:04:09.938Z,16.00
2022-10-05T22:06:36.523Z,16.00
2022-10-05T22:09:04.915Z,16.00
2022-10-05T22:11:32.270Z,16.00
2022-10-05T22:14:02.537Z,16.00
2022-10-05T22:16:43.461Z,16.00
2022-10-05T22:19:16.925Z,16.20
2022-10-05T22:21:43.592Z,16.10
2022-10-05T22:24:11.509Z,16.10
2022-10-05T22:26:39.319Z,16.00
2022-10-05T22:29:05.899Z,16.00
2022-10-05T22:31:32.497Z,16.00
2022-10-05T22:33:59.147Z,16.10
2022-10-05T22:36:25.662Z,16.10
2022-10-05T22:38:52.220Z,16.00
2022-10-05T22:41:18.950Z,16.00
2022-10-05T22:43:49.917Z,16.00
2022-10-05T22:46:16.706Z,15.90
2022-10-05T22:48:43.515Z,16.00
2022-10-05T22:51:10.317Z,15.90
2022-10-05T22:53:36.898Z,15.90
2022-10-05T22:56:07.621Z,15.90
2022-10-05T22:58:34.249Z,16.00
2022-10-05T23:01:03.645Z,15.90
2022-10-05T23:03:30.886Z,15.80
2022-10-05T23:06:18.945Z,15.90
2022-10-05T23:08:46.059Z,15.80
2022-10-05T23:11:14.672Z,15.80
2022-10-05T23:13:41.200Z,15.80
2022-10-05T23:16:11.914Z,15.90
2022-10-05T23:18:38.881Z,16.00
2022-10-05T23:21:07.760Z,16.10
2022-10-05T23:23:38.710Z,16.10
2022-10-05T23:26:07.313Z,16.00
2022-10-05T23:28:34.465Z,15.90
2022-10-05T23:31:03.462Z,16.00
2022-10-05T23:33:30.499Z,15.90
2022-10-05T23:36:04.912Z,15.90
2022-10-05T23:38:31.872Z,15.90
2022-10-05T23:40:59.669Z,15.90
2022-10-05T23:43:27.206Z,15.90
2022-10-05T23:45:53.726Z,15.90
2022-10-05T23:48:20.229Z,15.90
2022-10-05T23:50:46.900Z,15.90
2022-10-05T23:53:13.534Z,15.90
2022-10-05T23:55:39.998Z,15.90
2022-10-05T23:58:06.586Z,15.80
